sensor_id;sensor_type;location;lat;lon;timestamp;pressure;altitude;pressure_sealevel;temperature;humidity
65784;BME280;52532;53.358;-1.488;2022-08-20T00:02:06;100592.78;;;15.88;56.22
65784;BME280;52532;53.358;-1.488;2022-08-20T00:05:09;100589.68;;;16.70;55.24
65784;BME280;52532;53.358;-1.488;2022-08-20T00:08:12;100591.06;;;16.45;55.45
65784;BME280;52532;53.358;-1.488;2022-08-20T00:11:19;100587.39;;;17.35;54.85
65784;BME280;52532;53.358;-1.488;2022-08-20T00:14:22;100589.70;;;18.76;52.31
65784;BME280;52532;53.358;-1.488;2022-08-20T00:17:24;100587.68;;;17.56;54.30
65784;BME280;52532;53.358;-1.488;2022-08-20T00:20:30;100581.55;;;17.58;54.75
65784;BME280;52532;53.358;-1.488;2022-08-20T00:23:35;100572.89;;;17.54;55.41
65784;BME280;52532;53.358;-1.488;2022-08-20T00:26:38;100581.61;;;16.83;56.99
65784;BME280;52532;53.358;-1.488;2022-08-20T00:29:41;100578.08;;;17.47;55.90
65784;BME280;52532;53.358;-1.488;2022-08-20T00:32:46;100571.08;;;17.59;55.08
65784;BME280;52532;53.358;-1.488;2022-08-20T00:35:51;100570.14;;;16.32;59.52
65784;BME280;52532;53.358;-1.488;2022-08-20T00:38:55;100566.88;;;15.88;60.01
65784;BME280;52532;53.358;-1.488;2022-08-20T00:41:59;100566.69;;;17.09;57.19
65784;BME280;52532;53.358;-1.488;2022-08-20T00:45:02;100563.70;;;15.79;59.80
65784;BME280;52532;53.358;-1.488;2022-08-20T00:48:05;100562.77;;;16.62;58.33
65784;BME280;52532;53.358;-1.488;2022-08-20T00:51:11;100556.89;;;16.21;58.37
65784;BME280;52532;53.358;-1.488;2022-08-20T00:54:21;100554.13;;;17.20;56.69
65784;BME280;52532;53.358;-1.488;2022-08-20T00:57:28;100555.25;;;16.37;59.06
65784;BME280;52532;53.358;-1.488;2022-08-20T01:00:35;100554.28;;;16.01;59.52
65784;BME280;52532;53.358;-1.488;2022-08-20T01:03:39;100547.08;;;17.23;57.04
65784;BME280;52532;53.358;-1.488;2022-08-20T01:06:43;100550.37;;;16.52;58.52
65784;BME280;52532;53.358;-1.488;2022-08-20T01:09:47;100549.58;;;15.51;60.31
65784;BME280;52532;53.358;-1.488;2022-08-20T01:12:51;100552.96;;;15.90;60.79
65784;BME280;52532;53.358;-1.488;2022-08-20T01:15:55;100541.49;;;14.71;66.98
65784;BME280;52532;53.358;-1.488;2022-08-20T01:19:01;100546.30;;;16.60;63.00
65784;BME280;52532;53.358;-1.488;2022-08-20T01:22:04;100542.73;;;16.33;60.15
65784;BME280;52532;53.358;-1.488;2022-08-20T01:26:30;100540.02;;;16.41;61.89
65784;BME280;52532;53.358;-1.488;2022-08-20T01:29:38;100535.27;;;17.25;58.02
65784;BME280;52532;53.358;-1.488;2022-08-20T01:32:42;100542.36;;;15.86;61.25
65784;BME280;52532;53.358;-1.488;2022-08-20T01:35:45;100542.18;;;17.59;57.24
65784;BME280;52532;53.358;-1.488;2022-08-20T01:38:48;100546.17;;;17.14;58.39
65784;BME280;52532;53.358;-1.488;2022-08-20T01:41:57;100539.26;;;17.77;56.71
65784;BME280;52532;53.358;-1.488;2022-08-20T01:45:03;100545.96;;;15.98;60.30
65784;BME280;52532;53.358;-1.488;2022-08-20T01:48:07;100548.84;;;14.79;65.80
65784;BME280;52532;53.358;-1.488;2022-08-20T01:51:13;100546.97;;;17.77;57.58
65784;BME280;52532;53.358;-1.488;2022-08-20T01:54:17;100555.08;;;17.30;57.19
65784;BME280;52532;53.358;-1.488;2022-08-20T01:57:23;100558.42;;;16.94;59.16
65784;BME280;52532;53.358;-1.488;2022-08-20T02:00:27;100557.57;;;17.19;59.23
65784;BME280;52532;53.358;-1.488;2022-08-20T02:03:30;100557.81;;;17.63;58.32
65784;BME280;52532;53.358;-1.488;2022-08-20T02:06:36;100548.92;;;15.98;61.06
65784;BME280;52532;53.358;-1.488;2022-08-20T02:09:40;100548.66;;;16.81;59.91
65784;BME280;52532;53.358;-1.488;2022-08-20T02:12:43;100541.75;;;16.87;59.22
65784;BME280;52532;53.358;-1.488;2022-08-20T02:15:46;100540.40;;;16.78;60.18
65784;BME280;52532;53.358;-1.488;2022-08-20T02:18:52;100537.71;;;16.38;59.85
65784;BME280;52532;53.358;-1.488;2022-08-20T02:22:02;100530.39;;;18.51;55.03
65784;BME280;52532;53.358;-1.488;2022-08-20T02:25:09;100526.27;;;18.10;55.73
65784;BME280;52532;53.358;-1.488;2022-08-20T02:28:17;100525.06;;;16.96;56.87
65784;BME280;52532;53.358;-1.488;2022-08-20T02:31:22;100523.71;;;17.57;57.15
65784;BME280;52532;53.358;-1.488;2022-08-20T02:34:26;100530.67;;;16.89;58.31
65784;BME280;52532;53.358;-1.488;2022-08-20T02:37:29;100526.49;;;16.63;58.63
65784;BME280;52532;53.358;-1.488;2022-08-20T02:40:33;100518.02;;;15.92;61.77
65784;BME280;52532;53.358;-1.488;2022-08-20T02:43:40;100510.74;;;14.82;64.52
65784;BME280;52532;53.358;-1.488;2022-08-20T02:46:43;100506.86;;;16.80;61.52
65784;BME280;52532;53.358;-1.488;2022-08-20T02:49:46;100499.47;;;16.57;61.55
65784;BME280;52532;53.358;-1.488;2022-08-20T02:52:49;100494.20;;;15.04;66.92
65784;BME280;52532;53.358;-1.488;2022-08-20T02:55:52;100499.33;;;15.74;62.91
65784;BME280;52532;53.358;-1.488;2022-08-20T02:58:55;100502.51;;;14.88;64.84
65784;BME280;52532;53.358;-1.488;2022-08-20T03:01:58;100503.67;;;16.43;62.16
65784;BME280;52532;53.358;-1.488;2022-08-20T03:05:01;100505.65;;;16.07;62.83
65784;BME280;52532;53.358;-1.488;2022-08-20T03:08:06;100508.11;;;16.47;61.06
65784;BME280;52532;53.358;-1.488;2022-08-20T03:11:09;100508.23;;;17.00;60.37
65784;BME280;52532;53.358;-1.488;2022-08-20T03:14:13;100510.40;;;15.99;60.96
65784;BME280;52532;53.358;-1.488;2022-08-20T03:17:16;100508.03;;;16.65;61.43
65784;BME280;52532;53.358;-1.488;2022-08-20T03:20:19;100501.29;;;14.94;65.13
65784;BME280;52532;53.358;-1.488;2022-08-20T03:23:22;100501.14;;;14.48;66.22
65784;BME280;52532;53.358;-1.488;2022-08-20T03:26:25;100499.25;;;16.31;62.91
65784;BME280;52532;53.358;-1.488;2022-08-20T03:29:28;100502.83;;;14.64;65.97
65784;BME280;52532;53.358;-1.488;2022-08-20T03:32:31;100499.37;;;15.52;62.89
65784;BME280;52532;53.358;-1.488;2022-08-20T03:35:36;100495.83;;;15.53;64.49
65784;BME280;52532;53.358;-1.488;2022-08-20T03:38:40;100494.61;;;16.87;61.42
65784;BME280;52532;53.358;-1.488;2022-08-20T03:41:42;100487.38;;;15.42;63.46
65784;BME280;52532;53.358;-1.488;2022-08-20T03:44:45;100489.12;;;16.37;62.06
65784;BME280;52532;53.358;-1.488;2022-08-20T03:47:50;100488.92;;;15.58;64.06
65784;BME280;52532;53.358;-1.488;2022-08-20T03:50:55;100490.42;;;14.38;66.68
65784;BME280;52532;53.358;-1.488;2022-08-20T03:54:02;100484.26;;;15.96;63.78
65784;BME280;52532;53.358;-1.488;2022-08-20T03:57:05;100484.65;;;16.85;61.62
65784;BME280;52532;53.358;-1.488;2022-08-20T04:00:08;100482.11;;;15.89;63.07
65784;BME280;52532;53.358;-1.488;2022-08-20T04:03:12;100476.60;;;15.89;62.58
65784;BME280;52532;53.358;-1.488;2022-08-20T04:06:15;100474.01;;;16.37;61.13
65784;BME280;52532;53.358;-1.488;2022-08-20T04:09:19;100482.81;;;15.97;61.55
65784;BME280;52532;53.358;-1.488;2022-08-20T04:12:23;100477.28;;;15.75;61.61
65784;BME280;52532;53.358;-1.488;2022-08-20T04:15:27;100478.26;;;17.29;60.10
65784;BME280;52532;53.358;-1.488;2022-08-20T04:18:30;100470.42;;;16.00;63.65
65784;BME280;52532;53.358;-1.488;2022-08-20T04:21:35;100470.35;;;16.41;62.12
65784;BME280;52532;53.358;-1.488;2022-08-20T04:24:38;100470.50;;;15.23;64.96
65784;BME280;52532;53.358;-1.488;2022-08-20T04:27:41;100474.06;;;17.01;62.21
65784;BME280;52532;53.358;-1.488;2022-08-20T04:30:46;100478.91;;;15.41;64.24
65784;BME280;52532;53.358;-1.488;2022-08-20T04:33:49;100484.46;;;16.18;63.62
65784;BME280;52532;53.358;-1.488;2022-08-20T04:36:52;100488.33;;;16.88;61.57
65784;BME280;52532;53.358;-1.488;2022-08-20T04:39:56;100485.16;;;16.67;62.49
65784;BME280;52532;53.358;-1.488;2022-08-20T04:44:03;100483.25;;;16.42;61.57
65784;BME280;52532;53.358;-1.488;2022-08-20T04:47:06;100484.07;;;15.32;64.21
65784;BME280;52532;53.358;-1.488;2022-08-20T04:50:10;100492.80;;;17.04;59.75
65784;BME280;52532;53.358;-1.488;2022-08-20T04:53:16;100495.86;;;16.02;64.00
65784;BME280;52532;53.358;-1.488;2022-08-20T04:56:19;100504.03;;;16.97;61.18
65784;BME280;52532;53.358;-1.488;2022-08-20T04:59:24;100503.32;;;16.83;60.33
65784;BME280;52532;53.358;-1.488;2022-08-20T05:02:28;100500.12;;;15.95;62.24
65784;BME280;52532;53.358;-1.488;2022-08-20T05:05:32;100503.83;;;16.24;63.03
65784;BME280;52532;53.358;-1.488;2022-08-20T05:08:36;100502.00;;;17.46;58.51
65784;BME280;52532;53.358;-1.488;2022-08-20T05:11:40;100502.48;;;17.26;59.34
65784;BME280;52532;53.358;-1.488;2022-08-20T05:14:43;100499.11;;;17.18;59.56
65784;BME280;52532;53.358;-1.488;2022-08-20T05:17:46;100500.87;;;15.55;63.20
65784;BME280;52532;53.358;-1.488;2022-08-20T05:20:52;100508.07;;;18.02;57.67
65784;BME280;52532;53.358;-1.488;2022-08-20T05:24:06;100510.85;;;16.91;60.25
65784;BME280;52532;53.358;-1.488;2022-08-20T05:27:09;100511.54;;;16.18;61.57
65784;BME280;52532;53.358;-1.488;2022-08-20T05:30:13;100508.29;;;15.34;63.66
65784;BME280;52532;53.358;-1.488;2022-08-20T05:33:17;100511.48;;;17.06;59.83
65784;BME280;52532;53.358;-1.488;2022-08-20T05:36:21;100508.64;;;16.33;61.66
65784;BME280;52532;53.358;-1.488;2022-08-20T05:39:24;100506.64;;;16.94;60.59
65784;BME280;52532;53.358;-1.488;2022-08-20T05:42:26;100499.91;;;17.74;58.44
65784;BME280;52532;53.358;-1.488;2022-08-20T05:45:30;100501.46;;;18.01;57.30
65784;BME280;52532;53.358;-1.488;2022-08-20T05:48:34;100508.12;;;15.84;62.54
65784;BME280;52532;53.358;-1.488;2022-08-20T05:51:37;100512.75;;;16.18;61.77
65784;BME280;52532;53.358;-1.488;2022-08-20T05:54:40;100506.74;;;16.51;62.11
65784;BME280;52532;53.358;-1.488;2022-08-20T05:57:43;100500.34;;;16.62;63.09
65784;BME280;52532;53.358;-1.488;2022-08-20T06:00:46;100500.71;;;15.60;66.47
65784;BME280;52532;53.358;-1.488;2022-08-20T06:03:50;100494.81;;;15.55;66.90
65784;BME280;52532;53.358;-1.488;2022-08-20T06:07:58;100492.68;;;16.66;64.44
65784;BME280;52532;53.358;-1.488;2022-08-20T06:11:02;100485.90;;;15.17;68.99
65784;BME280;52532;53.358;-1.488;2022-08-20T06:14:06;100491.71;;;14.64;70.57
65784;BME280;52532;53.358;-1.488;2022-08-20T06:17:13;100493.66;;;16.10;65.63
65784;BME280;52532;53.358;-1.488;2022-08-20T06:20:17;100489.05;;;15.02;68.59
65784;BME280;52532;53.358;-1.488;2022-08-20T06:23:20;100485.57;;;15.24;66.00
65784;BME280;52532;53.358;-1.488;2022-08-20T06:26:27;100480.83;;;14.87;70.64
65784;BME280;52532;53.358;-1.488;2022-08-20T06:29:31;100480.52;;;15.97;66.80
65784;BME280;52532;53.358;-1.488;2022-08-20T06:32:35;100480.42;;;13.04;77.21
65784;BME280;52532;53.358;-1.488;2022-08-20T06:35:43;100484.29;;;15.46;69.52
65784;BME280;52532;53.358;-1.488;2022-08-20T06:38:46;100477.96;;;15.56;69.24
65784;BME280;52532;53.358;-1.488;2022-08-20T06:41:49;100485.17;;;16.28;67.26
65784;BME280;52532;53.358;-1.488;2022-08-20T06:44:53;100475.50;;;14.74;73.09
65784;BME280;52532;53.358;-1.488;2022-08-20T06:47:58;100483.88;;;15.99;69.82
65784;BME280;52532;53.358;-1.488;2022-08-20T06:51:02;100482.40;;;16.50;67.36
65784;BME280;52532;53.358;-1.488;2022-08-20T06:54:08;100478.06;;;15.01;70.98
65784;BME280;52532;53.358;-1.488;2022-08-20T06:57:11;100473.87;;;14.48;73.23
65784;BME280;52532;53.358;-1.488;2022-08-20T07:00:18;100476.89;;;14.80;73.29
65784;BME280;52532;53.358;-1.488;2022-08-20T07:03:22;100480.65;;;14.57;75.07
65784;BME280;52532;53.358;-1.488;2022-08-20T07:06:26;100478.74;;;16.25;71.03
65784;BME280;52532;53.358;-1.488;2022-08-20T07:09:29;100474.70;;;14.93;71.30
65784;BME280;52532;53.358;-1.488;2022-08-20T07:12:32;100468.39;;;15.26;73.65
65784;BME280;52532;53.358;-1.488;2022-08-20T07:15:37;100465.46;;;16.03;71.53
65784;BME280;52532;53.358;-1.488;2022-08-20T07:18:40;100453.26;;;15.29;72.68
65784;BME280;52532;53.358;-1.488;2022-08-20T07:21:43;100460.99;;;15.60;72.75
65784;BME280;52532;53.358;-1.488;2022-08-20T07:24:46;100451.49;;;17.78;65.76
65784;BME280;52532;53.358;-1.488;2022-08-20T07:27:50;100457.90;;;18.02;63.86
65784;BME280;52532;53.358;-1.488;2022-08-20T07:30:52;100456.05;;;18.17;64.84
65784;BME280;52532;53.358;-1.488;2022-08-20T07:36:09;100453.04;;;15.30;74.58
65784;BME280;52532;53.358;-1.488;2022-08-20T07:39:12;100468.15;;;16.96;69.58
65784;BME280;52532;53.358;-1.488;2022-08-20T07:42:16;100466.89;;;16.74;69.46
65784;BME280;52532;53.358;-1.488;2022-08-20T07:45:20;100470.27;;;16.73;72.16
65784;BME280;52532;53.358;-1.488;2022-08-20T07:48:24;100468.44;;;17.18;68.93
65784;BME280;52532;53.358;-1.488;2022-08-20T07:51:28;100473.58;;;16.01;72.40
65784;BME280;52532;53.358;-1.488;2022-08-20T07:57:34;100476.22;;;16.66;72.37
65784;BME280;52532;53.358;-1.488;2022-08-20T08:00:37;100469.78;;;16.37;72.00
65784;BME280;52532;53.358;-1.488;2022-08-20T08:03:41;100465.80;;;17.90;67.61
65784;BME280;52532;53.358;-1.488;2022-08-20T08:06:45;100475.56;;;18.30;66.84
65784;BME280;52532;53.358;-1.488;2022-08-20T08:09:49;100477.12;;;16.20;72.09
65784;BME280;52532;53.358;-1.488;2022-08-20T08:12:55;100472.84;;;15.48;75.02
65784;BME280;52532;53.358;-1.488;2022-08-20T08:16:07;100472.75;;;16.11;73.26
65784;BME280;52532;53.358;-1.488;2022-08-20T08:19:14;100467.08;;;17.06;69.08
65784;BME280;52532;53.358;-1.488;2022-08-20T08:22:19;100469.43;;;18.11;65.78
65784;BME280;52532;53.358;-1.488;2022-08-20T08:25:34;100478.07;;;18.67;66.01
65784;BME280;52532;53.358;-1.488;2022-08-20T08:28:42;100479.38;;;18.35;63.77
65784;BME280;52532;53.358;-1.488;2022-08-20T08:31:46;100472.88;;;17.21;68.58
65784;BME280;52532;53.358;-1.488;2022-08-20T08:35:02;100477.60;;;16.87;66.83
65784;BME280;52532;53.358;-1.488;2022-08-20T08:38:17;100476.89;;;17.05;67.03
65784;BME280;52532;53.358;-1.488;2022-08-20T08:41:27;100470.58;;;16.45;70.22
65784;BME280;52532;53.358;-1.488;2022-08-20T08:44:42;100476.44;;;16.15;72.61
65784;BME280;52532;53.358;-1.488;2022-08-20T08:47:46;100475.21;;;17.20;69.38
65784;BME280;52532;53.358;-1.488;2022-08-20T08:50:53;100475.07;;;16.40;70.28
65784;BME280;52532;53.358;-1.488;2022-08-20T08:57:16;100479.46;;;16.98;70.12
65784;BME280;52532;53.358;-1.488;2022-08-20T09:00:28;100471.86;;;16.36;69.96
65784;BME280;52532;53.358;-1.488;2022-08-20T09:03:38;100465.36;;;18.28;64.32
65784;BME280;52532;53.358;-1.488;2022-08-20T09:06:50;100462.21;;;17.22;65.89
65784;BME280;52532;53.358;-1.488;2022-08-20T09:10:03;100457.70;;;18.04;64.02
65784;BME280;52532;53.358;-1.488;2022-08-20T09:13:18;100462.57;;;18.41;63.19
65784;BME280;52532;53.358;-1.488;2022-08-20T09:16:24;100460.56;;;18.08;64.75
65784;BME280;52532;53.358;-1.488;2022-08-20T09:19:29;100457.04;;;16.82;67.29
65784;BME280;52532;53.358;-1.488;2022-08-20T09:22:33;100469.99;;;17.70;63.00
65784;BME280;52532;53.358;-1.488;2022-08-20T09:25:36;100463.97;;;19.18;59.82
65784;BME280;52532;53.358;-1.488;2022-08-20T09:28:39;100462.64;;;19.02;59.85
65784;BME280;52532;53.358;-1.488;2022-08-20T09:31:42;100467.90;;;17.82;63.50
65784;BME280;52532;53.358;-1.488;2022-08-20T09:34:49;100469.13;;;18.50;61.28
65784;BME280;52532;53.358;-1.488;2022-08-20T09:37:57;100455.87;;;19.81;58.48
65784;BME280;52532;53.358;-1.488;2022-08-20T09:41:00;100458.14;;;18.36;60.15
65784;BME280;52532;53.358;-1.488;2022-08-20T09:44:03;100463.73;;;19.30;57.58
65784;BME280;52532;53.358;-1.488;2022-08-20T09:47:06;100461.13;;;19.86;57.07
65784;BME280;52532;53.358;-1.488;2022-08-20T09:50:09;100454.16;;;18.85;56.55
65784;BME280;52532;53.358;-1.488;2022-08-20T09:53:12;100466.84;;;20.06;54.60
65784;BME280;52532;53.358;-1.488;2022-08-20T09:56:17;100470.01;;;18.59;57.00
65784;BME280;52532;53.358;-1.488;2022-08-20T09:59:20;100465.56;;;18.61;55.58
65784;BME280;52532;53.358;-1.488;2022-08-20T10:02:23;100457.66;;;19.63;54.65
65784;BME280;52532;53.358;-1.488;2022-08-20T10:05:26;100455.48;;;20.55;52.13
65784;BME280;52532;53.358;-1.488;2022-08-20T10:08:29;100458.00;;;19.88;54.32
65784;BME280;52532;53.358;-1.488;2022-08-20T10:11:32;100450.94;;;20.30;51.50
65784;BME280;52532;53.358;-1.488;2022-08-20T10:14:35;100456.30;;;19.27;53.84
65784;BME280;52532;53.358;-1.488;2022-08-20T10:17:40;100447.50;;;20.05;53.40
65784;BME280;52532;53.358;-1.488;2022-08-20T10:20:44;100448.68;;;19.22;54.34
65784;BME280;52532;53.358;-1.488;2022-08-20T10:23:46;100453.85;;;19.53;52.61
65784;BME280;52532;53.358;-1.488;2022-08-20T10:26:50;100445.53;;;19.46;52.34
65784;BME280;52532;53.358;-1.488;2022-08-20T10:29:55;100437.35;;;19.57;51.36
65784;BME280;52532;53.358;-1.488;2022-08-20T10:32:58;100453.17;;;20.21;49.64
65784;BME280;52532;53.358;-1.488;2022-08-20T10:36:05;100442.80;;;19.28;50.92
65784;BME280;52532;53.358;-1.488;2022-08-20T10:39:09;100452.13;;;19.05;52.37
65784;BME280;52532;53.358;-1.488;2022-08-20T10:42:12;100438.85;;;19.87;49.82
65784;BME280;52532;53.358;-1.488;2022-08-20T10:45:15;100435.89;;;21.42;47.25
65784;BME280;52532;53.358;-1.488;2022-08-20T10:48:28;100441.81;;;20.47;48.55
65784;BME280;52532;53.358;-1.488;2022-08-20T10:51:33;100434.22;;;21.61;46.34
65784;BME280;52532;53.358;-1.488;2022-08-20T10:54:36;100428.97;;;20.90;46.49
65784;BME280;52532;53.358;-1.488;2022-08-20T10:57:43;100430.46;;;19.56;50.22
65784;BME280;52532;53.358;-1.488;2022-08-20T11:00:46;100436.93;;;20.51;48.02
65784;BME280;52532;53.358;-1.488;2022-08-20T11:03:50;100433.83;;;20.76;47.60
65784;BME280;52532;53.358;-1.488;2022-08-20T11:06:53;100432.71;;;20.36;49.60
65784;BME280;52532;53.358;-1.488;2022-08-20T11:10:08;100433.94;;;21.61;45.64
65784;BME280;52532;53.358;-1.488;2022-08-20T11:13:11;100433.39;;;21.74;44.95
65784;BME280;52532;53.358;-1.488;2022-08-20T11:16:14;100446.33;;;20.58;47.36
65784;BME280;52532;53.358;-1.488;2022-08-20T11:19:17;100443.38;;;19.49;49.46
65784;BME280;52532;53.358;-1.488;2022-08-20T11:22:20;100454.36;;;21.15;46.69
65784;BME280;52532;53.358;-1.488;2022-08-20T11:25:24;100448.63;;;20.01;47.85
65784;BME280;52532;53.358;-1.488;2022-08-20T11:28:32;100439.92;;;20.73;46.65
65784;BME280;52532;53.358;-1.488;2022-08-20T11:31:35;100446.77;;;20.34;46.43
65784;BME280;52532;53.358;-1.488;2022-08-20T11:34:38;100437.83;;;19.18;49.90
65784;BME280;52532;53.358;-1.488;2022-08-20T11:37:43;100456.27;;;19.76;47.84
65784;BME280;52532;53.358;-1.488;2022-08-20T11:40:52;100455.81;;;20.28;46.68
65784;BME280;52532;53.358;-1.488;2022-08-20T11:43:58;100453.95;;;20.53;46.48
65784;BME280;52532;53.358;-1.488;2022-08-20T11:47:04;100448.13;;;19.60;47.69
65784;BME280;52532;53.358;-1.488;2022-08-20T11:50:14;100451.39;;;20.98;46.77
65784;BME280;52532;53.358;-1.488;2022-08-20T11:53:27;100454.53;;;20.44;45.46
65784;BME280;52532;53.358;-1.488;2022-08-20T11:56:33;100447.48;;;20.26;47.27
65784;BME280;52532;53.358;-1.488;2022-08-20T11:59:39;100441.92;;;21.19;44.13
65784;BME280;52532;53.358;-1.488;2022-08-20T12:02:48;100435.28;;;21.82;43.12
65784;BME280;52532;53.358;-1.488;2022-08-20T12:06:05;100430.40;;;22.34;42.49
65784;BME280;52532;53.358;-1.488;2022-08-20T12:09:11;100437.00;;;22.87;39.62
65784;BME280;52532;53.358;-1.488;2022-08-20T12:12:21;100439.37;;;21.48;40.69
65784;BME280;52532;53.358;-1.488;2022-08-20T12:15:25;100434.91;;;20.73;43.62
65784;BME280;52532;53.358;-1.488;2022-08-20T12:18:28;100424.26;;;21.94;40.03
65784;BME280;52532;53.358;-1.488;2022-08-20T12:21:33;100418.00;;;21.34;40.76
65784;BME280;52532;53.358;-1.488;2022-08-20T12:24:36;100417.46;;;22.19;38.87
65784;BME280;52532;53.358;-1.488;2022-08-20T12:27:41;100419.73;;;21.39;38.75
65784;BME280;52532;53.358;-1.488;2022-08-20T12:30:44;100415.25;;;21.80;39.25
65784;BME280;52532;53.358;-1.488;2022-08-20T12:33:48;100424.98;;;23.49;37.37
65784;BME280;52532;53.358;-1.488;2022-08-20T12:36:59;100420.11;;;21.74;39.44
65784;BME280;52532;53.358;-1.488;2022-08-20T12:40:06;100422.76;;;22.08;39.94
65784;BME280;52532;53.358;-1.488;2022-08-20T12:43:09;100420.33;;;22.84;38.70
65784;BME280;52532;53.358;-1.488;2022-08-20T12:46:13;100416.74;;;21.73;40.14
65784;BME280;52532;53.358;-1.488;2022-08-20T12:49:20;100415.57;;;23.33;37.85
65784;BME280;52532;53.358;-1.488;2022-08-20T12:52:25;100415.41;;;21.94;39.86
65784;BME280;52532;53.358;-1.488;2022-08-20T12:55:30;100415.07;;;22.44;37.76
65784;BME280;52532;53.358;-1.488;2022-08-20T12:58:33;100408.77;;;21.83;38.60
65784;BME280;52532;53.358;-1.488;2022-08-20T13:01:36;100417.26;;;23.01;37.66
65784;BME280;52532;53.358;-1.488;2022-08-20T13:04:45;100418.39;;;22.14;39.02
65784;BME280;52532;53.358;-1.488;2022-08-20T13:07:50;100405.53;;;23.81;37.66
65784;BME280;52532;53.358;-1.488;2022-08-20T13:10:54;100406.79;;;24.04;36.65
65784;BME280;52532;53.358;-1.488;2022-08-20T13:13:57;100409.11;;;22.40;38.84
65784;BME280;52532;53.358;-1.488;2022-08-20T13:17:02;100402.97;;;22.55;38.21
65784;BME280;52532;53.358;-1.488;2022-08-20T13:20:08;100401.10;;;21.49;37.90
65784;BME280;52532;53.358;-1.488;2022-08-20T13:23:13;100406.28;;;21.33;40.13
65784;BME280;52532;53.358;-1.488;2022-08-20T13:26:16;100393.04;;;21.13;40.78
65784;BME280;52532;53.358;-1.488;2022-08-20T13:29:19;100386.30;;;22.67;37.99
65784;BME280;52532;53.358;-1.488;2022-08-20T13:32:25;100411.01;;;22.11;37.68
65784;BME280;52532;53.358;-1.488;2022-08-20T13:35:37;100394.94;;;22.21;36.38
65784;BME280;52532;53.358;-1.488;2022-08-20T13:38:44;100396.71;;;22.76;35.98
65784;BME280;52532;53.358;-1.488;2022-08-20T13:41:48;100387.08;;;21.91;37.41
65784;BME280;52532;53.358;-1.488;2022-08-20T13:44:52;100384.63;;;21.37;39.34
65784;BME280;52532;53.358;-1.488;2022-08-20T13:47:59;100389.57;;;22.83;36.49
65784;BME280;52532;53.358;-1.488;2022-08-20T13:51:04;100394.98;;;21.60;38.05
65784;BME280;52532;53.358;-1.488;2022-08-20T13:54:07;100383.13;;;22.04;37.54
65784;BME280;52532;53.358;-1.488;2022-08-20T13:57:12;100380.59;;;23.42;36.12
65784;BME280;52532;53.358;-1.488;2022-08-20T14:00:24;100383.84;;;24.21;34.21
65784;BME280;52532;53.358;-1.488;2022-08-20T14:03:27;100384.06;;;24.02;34.82
65784;BME280;52532;53.358;-1.488;2022-08-20T14:06:30;100380.22;;;23.04;34.69
65784;BME280;52532;53.358;-1.488;2022-08-20T14:09:36;100380.03;;;22.97;35.26
65784;BME280;52532;53.358;-1.488;2022-08-20T14:12:39;100382.94;;;22.61;36.45
65784;BME280;52532;53.358;-1.488;2022-08-20T14:15:43;100380.34;;;21.79;38.98
65784;BME280;52532;53.358;-1.488;2022-08-20T14:18:47;100381.72;;;23.39;35.24
65784;BME280;52532;53.358;-1.488;2022-08-20T14:21:51;100376.49;;;22.83;34.75
65784;BME280;52532;53.358;-1.488;2022-08-20T14:24:54;100379.49;;;23.35;34.37
65784;BME280;52532;53.358;-1.488;2022-08-20T14:28:08;100383.79;;;22.65;34.82
65784;BME280;52532;53.358;-1.488;2022-08-20T14:31:12;100371.86;;;22.24;36.69
65784;BME280;52532;53.358;-1.488;2022-08-20T14:34:16;100366.43;;;22.30;35.40
65784;BME280;52532;53.358;-1.488;2022-08-20T14:37:21;100357.22;;;23.03;35.47
65784;BME280;52532;53.358;-1.488;2022-08-20T14:40:26;100363.15;;;23.66;34.23
65784;BME280;52532;53.358;-1.488;2022-08-20T14:43:28;100363.19;;;22.40;36.11
65784;BME280;52532;53.358;-1.488;2022-08-20T14:46:31;100359.69;;;22.67;35.86
65784;BME280;52532;53.358;-1.488;2022-08-20T14:49:34;100360.42;;;23.74;33.97
65784;BME280;52532;53.358;-1.488;2022-08-20T14:52:37;100358.28;;;24.18;32.61
65784;BME280;52532;53.358;-1.488;2022-08-20T14:55:40;100361.38;;;23.44;33.66
65784;BME280;52532;53.358;-1.488;2022-08-20T14:58:44;100360.21;;;23.11;33.71
65784;BME280;52532;53.358;-1.488;2022-08-20T15:01:47;100366.23;;;22.19;35.12
65784;BME280;52532;53.358;-1.488;2022-08-20T15:04:51;100377.85;;;23.61;33.58
65784;BME280;52532;53.358;-1.488;2022-08-20T15:07:55;100367.89;;;22.81;37.65
65784;BME280;52532;53.358;-1.488;2022-08-20T15:11:00;100363.28;;;22.86;33.28
65784;BME280;52532;53.358;-1.488;2022-08-20T15:14:04;100355.94;;;22.23;35.77
65784;BME280;52532;53.358;-1.488;2022-08-20T15:17:09;100367.70;;;23.55;33.55
65784;BME280;52532;53.358;-1.488;2022-08-20T15:20:14;100364.26;;;23.48;32.82
65784;BME280;52532;53.358;-1.488;2022-08-20T15:23:18;100363.42;;;23.30;33.80
65784;BME280;52532;53.358;-1.488;2022-08-20T15:26:21;100362.08;;;22.77;35.17
65784;BME280;52532;53.358;-1.488;2022-08-20T15:29:24;100359.93;;;24.09;32.37
65784;BME280;52532;53.358;-1.488;2022-08-20T15:32:28;100367.33;;;24.07;31.97
65784;BME280;52532;53.358;-1.488;2022-08-20T15:35:33;100366.24;;;23.27;33.52
65784;BME280;52532;53.358;-1.488;2022-08-20T15:38:36;100362.69;;;24.28;33.25
65784;BME280;52532;53.358;-1.488;2022-08-20T15:41:39;100361.09;;;24.91;32.25
65784;BME280;52532;53.358;-1.488;2022-08-20T15:44:42;100363.86;;;24.92;31.68
65784;BME280;52532;53.358;-1.488;2022-08-20T15:47:52;100351.10;;;24.81;33.00
65784;BME280;52532;53.358;-1.488;2022-08-20T15:51:08;100354.75;;;23.62;34.66
65784;BME280;52532;53.358;-1.488;2022-08-20T15:54:17;100350.76;;;24.37;33.07
65784;BME280;52532;53.358;-1.488;2022-08-20T15:57:35;100346.28;;;23.75;33.51
65784;BME280;52532;53.358;-1.488;2022-08-20T16:00:46;100340.44;;;25.14;31.05
65784;BME280;52532;53.358;-1.488;2022-08-20T16:05:06;100345.67;;;23.30;32.45
65784;BME280;52532;53.358;-1.488;2022-08-20T16:08:32;100339.00;;;25.26;30.48